< Typhoon 198414 1984 Season Typhoon 198416 >
Typhoon 198415 (NINA)
General InformationTrack Information on Google MapsDetailed Wind InformationList of All Images || Disaster Info.ResourceGoogle EarthGE AnimationAtom FeedGeoJSON
Detalied Best Track (Time Zone = UTC)
Year Month Day Hour Lat. Long. Pressure (hPa) Wind (kt) Class Image Chart
1984 9 27 00 21.0 141.5 1004 0 2 Image Chart
1984 9 27 06 21.6 141.0 1000 0 2 Image Chart
1984 9 27 12 22.4 140.7 998 40 3 Image Chart
1984 9 27 18 23.3 140.6 998 40 3 Image Chart
1984 9 28 00 24.2 140.5 996 40 3 Image Chart
1984 9 28 06 24.5 140.5 994 40 3 Image Chart
1984 9 28 12 24.8 140.6 994 40 3 Image Chart
1984 9 28 18 25.3 140.6 994 40 3 Image Chart
1984 9 29 00 25.6 140.6 994 40 3 Image Chart
1984 9 29 06 26.1 140.7 994 40 3 Image Chart
1984 9 29 12 26.6 140.8 994 40 3 Image Chart
1984 9 29 18 27.1 141.1 994 40 3 Image Chart
1984 9 30 00 27.6 141.6 994 40 3 Image Chart
1984 9 30 06 28.6 143.1 994 40 3 Image Chart
1984 9 30 12 29.7 144.8 994 40 3 Image Chart
1984 9 30 18 31.0 147.0 992 40 3 Image Chart
1984 10 1 00 32.6 149.9 992 35 3 Image Chart
1984 10 1 06 34.0 152.8 994 40 3 Image Chart
1984 10 1 12 34.9 156.2 994 45 3 Image Chart
1984 10 1 18 36.0 160.0 996 45 3 Image Chart
1984 10 2 00 37.0 164.5 996 45 3 Image Chart
1984 10 2 06 37.5 169.0 998 45 3 Image Chart
1984 10 2 12 37.5 175.5 1000 0 6 Image Chart
Japan Meteorological Agency Best Track Data | Correction Date : 1992-10-21
< Typhoon 198414 1984 Season Typhoon 198416 >

Help